KEED/EED METAR and TAF weather

Enter ICAO airport designator
Station Type Date Time Source
KEED METAR 2022/12/02 23:56 UTC NOAA

KEED 022356Z AUTO 00000KT 10SM CLR 18/03 A3009 RMK AO2 SLPNO T01830033 56002


Station Type Date Time Source
KEED Decoded METAR 2022/12/02 23:56 UTC NOAA

NEEDLES AIRPORT, CA, United States (KEED) 34-46N 114-37W
Dec 02, 2022 - 06:56 PM EST / 2022.12.02 2356 UTC
Wind: Calm:0
Visibility: 10 mile(s):0
Sky conditions: clear
Temperature: 64.9 F (18.3 C)
Dew Point: 37.9 F (3.3 C)
Relative Humidity: 36%
Pressure (altimeter): 30.09 in. Hg (1018 hPa)
Pressure tendency: 0.01 inches (0.2 hPa) lower than three hours ago
ob: KEED 022356Z AUTO 00000KT 10SM CLR 18/03 A3009 RMK AO2 SLPNO T01830033 56002
cycle: 0

Station Type Date Time Source
KEED TAF 2022/12/02 18:24 UTC NOAA

TAF KEED 021721Z 0218/0318 08006KT P6SM SCT200
FM030200 24006KT P6SM BKN150
FM030800 30006KT P6SM BKN150
AMD NOT SKED

Example: see airport list